createdAt,value
2023-12-27T00:01:53.294Z,97927.82
2023-12-27T00:04:22.026Z,97940.77
2023-12-27T00:06:52.839Z,97939.84
2023-12-27T00:09:21.277Z,97944.34
2023-12-27T00:11:49.585Z,97947.81
2023-12-27T00:14:17.831Z,97955.65
2023-12-27T00:16:46.219Z,97965.23
2023-12-27T00:19:14.576Z,97972.27
2023-12-27T00:21:42.845Z,97977.36
2023-12-27T00:24:11.015Z,97982.05
2023-12-27T00:26:39.321Z,97988.73
2023-12-27T00:29:07.896Z,97990.73
2023-12-27T00:31:36.162Z,97991.13
2023-12-27T00:34:04.963Z,97993.99
2023-12-27T00:36:33.300Z,98002.67
2023-12-27T00:39:02.627Z,98014.32
2023-12-27T00:41:30.915Z,98026.66
2023-12-27T00:43:59.164Z,98026.55
2023-12-27T00:46:27.473Z,98028.70
2023-12-27T00:48:56.145Z,98036.79
2023-12-27T00:51:24.516Z,98039.27
2023-12-27T00:53:53.935Z,98049.77
2023-12-27T00:56:24.237Z,98057.85
2023-12-27T00:58:52.992Z,98058.39
2023-12-27T01:01:21.311Z,98057.83
2023-12-27T01:03:50.180Z,98062.73
2023-12-27T01:06:18.705Z,98070.08
2023-12-27T01:08:46.929Z,98066.98
2023-12-27T01:11:15.555Z,98068.40
2023-12-27T01:13:43.850Z,98064.09
2023-12-27T01:16:12.104Z,98066.08
2023-12-27T01:18:42.227Z,98052.98
2023-12-27T01:21:10.554Z,98055.21
2023-12-27T01:23:38.809Z,98060.08
2023-12-27T01:26:07.506Z,98061.26
2023-12-27T01:28:35.698Z,98064.21
2023-12-27T01:31:04.376Z,98054.60
2023-12-27T01:33:32.761Z,98062.64
2023-12-27T01:36:09.843Z,98061.63
2023-12-27T01:38:38.057Z,98062.99
2023-12-27T01:41:06.461Z,98059.45
2023-12-27T01:43:34.712Z,98060.98
2023-12-27T01:46:04.221Z,98058.48
2023-12-27T01:48:32.836Z,98059.34
2023-12-27T01:51:02.526Z,98052.12
2023-12-27T01:53:31.253Z,98048.60
2023-12-27T01:56:02.825Z,98043.29
2023-12-27T01:58:31.198Z,98043.15
2023-12-27T02:01:00.094Z,98040.09
2023-12-27T02:03:28.600Z,98038.12
2023-12-27T02:05:58.833Z,98036.45
2023-12-27T02:08:29.194Z,98035.02
2023-12-27T02:10:57.446Z,98038.05
2023-12-27T02:13:25.738Z,98028.98
2023-12-27T02:15:54.412Z,98023.14
2023-12-27T02:18:23.312Z,98024.59
2023-12-27T02:20:53.547Z,98022.89
2023-12-27T02:23:26.291Z,98030.05
2023-12-27T02:25:56.049Z,98039.47
2023-12-27T02:28:24.370Z,98051.65
2023-12-27T02:30:56.199Z,98063.00
2023-12-27T02:33:25.435Z,98070.27
2023-12-27T02:35:53.796Z,98070.62
2023-12-27T02:38:22.174Z,98073.77
2023-12-27T02:40:50.439Z,98079.20
2023-12-27T02:43:18.685Z,98083.05
2023-12-27T02:45:46.871Z,98088.15
2023-12-27T02:48:15.179Z,98092.16
2023-12-27T02:50:45.830Z,98099.63
2023-12-27T02:53:14.180Z,98099.41
2023-12-27T02:55:42.617Z,98096.06
2023-12-27T02:58:10.826Z,98094.03
2023-12-27T03:00:39.309Z,98098.89
2023-12-27T03:03:07.764Z,98094.48
2023-12-27T03:05:36.222Z,98092.75
2023-12-27T03:08:05.217Z,98098.20
2023-12-27T03:10:33.531Z,98103.16
2023-12-27T03:13:01.715Z,98109.02
2023-12-27T03:15:29.996Z,98114.41
2023-12-27T03:17:59.306Z,98121.81
2023-12-27T03:20:27.777Z,98117.05
2023-12-27T03:22:56.123Z,98119.60
2023-12-27T03:25:24.348Z,98121.85
2023-12-27T03:27:52.576Z,98122.71
2023-12-27T03:30:20.894Z,98125.31
2023-12-27T03:32:49.422Z,98126.63
2023-12-27T03:35:17.795Z,98125.81
2023-12-27T03:37:46.422Z,98136.13
2023-12-27T03:40:14.732Z,98139.48
2023-12-27T03:42:42.964Z,98139.67
2023-12-27T03:45:11.194Z,98144.06
2023-12-27T03:47:39.440Z,98143.94
2023-12-27T03:50:08.212Z,98142.11
2023-12-27T03:52:36.502Z,98135.86
2023-12-27T03:55:06.142Z,98132.52
2023-12-27T03:57:34.476Z,98138.50
2023-12-27T04:00:02.980Z,98147.91
2023-12-27T04:02:35.550Z,98154.86
2023-12-27T04:05:05.117Z,98165.52
2023-12-27T04:07:33.321Z,98167.70
2023-12-27T04:10:01.830Z,98167.05
2023-12-27T04:12:30.076Z,98171.70
2023-12-27T04:14:58.357Z,98169.27
2023-12-27T04:17:27.140Z,98173.52
2023-12-27T04:19:55.416Z,98173.64
2023-12-27T04:22:23.623Z,98172.61
2023-12-27T04:24:51.932Z,98176.02
2023-12-27T04:27:20.218Z,98178.21
2023-12-27T04:29:48.492Z,98174.48
2023-12-27T04:32:16.681Z,98174.27
2023-12-27T04:34:44.981Z,98178.43
2023-12-27T04:37:13.399Z,98176.74
2023-12-27T04:39:41.639Z,98176.07
2023-12-27T04:42:10.176Z,98174.02
2023-12-27T04:44:38.403Z,98175.05
2023-12-27T04:47:08.762Z,98187.81
2023-12-27T04:49:37.313Z,98191.31
2023-12-27T04:52:06.819Z,98193.24
2023-12-27T04:54:35.125Z,98196.40
2023-12-27T04:57:03.786Z,98204.11
2023-12-27T04:59:32.119Z,98204.30
2023-12-27T05:02:00.373Z,98206.89
2023-12-27T05:04:28.679Z,98206.60
2023-12-27T05:06:57.592Z,98205.07
2023-12-27T05:09:25.842Z,98213.11
2023-12-27T05:11:54.095Z,98216.10
2023-12-27T05:14:22.289Z,98221.60
2023-12-27T05:16:52.077Z,98225.54
2023-12-27T05:19:20.369Z,98235.15
2023-12-27T05:21:48.723Z,98235.66
2023-12-27T05:24:17.078Z,98233.85
2023-12-27T05:26:45.690Z,98232.17
2023-12-27T05:29:13.887Z,98239.59
2023-12-27T05:31:42.179Z,98248.61
2023-12-27T05:34:10.592Z,98249.98
2023-12-27T05:36:38.938Z,98251.53
2023-12-27T05:39:07.422Z,98258.23
2023-12-27T05:41:35.809Z,98262.67
2023-12-27T05:44:04.570Z,98265.97
2023-12-27T05:46:36.479Z,98270.40
2023-12-27T05:49:04.957Z,98262.33
2023-12-27T05:51:34.654Z,98269.77
2023-12-27T05:54:04.280Z,98277.02
2023-12-27T05:56:33.417Z,98278.92
2023-12-27T05:59:01.963Z,98282.33
2023-12-27T06:01:30.353Z,98280.21
2023-12-27T06:03:58.654Z,98274.30
2023-12-27T06:06:27.011Z,98279.04
2023-12-27T06:08:55.308Z,98280.17
2023-12-27T06:11:23.602Z,98280.86
2023-12-27T06:13:51.897Z,98284.58
2023-12-27T06:16:20.182Z,98292.85
2023-12-27T06:18:48.551Z,98292.60
2023-12-27T06:21:16.979Z,98300.39
2023-12-27T06:23:45.278Z,98303.05
2023-12-27T06:26:13.804Z,98307.46
2023-12-27T06:28:45.198Z,98310.08
2023-12-27T06:31:13.639Z,98314.73
2023-12-27T06:33:42.195Z,98320.13
2023-12-27T06:36:10.626Z,98318.34
2023-12-27T06:38:39.277Z,98321.80
2023-12-27T06:41:08.451Z,98328.16
2023-12-27T06:43:36.773Z,98332.64
2023-12-27T06:46:05.086Z,98337.70
2023-12-27T06:48:33.661Z,98341.95
2023-12-27T06:51:04.626Z,98347.32
2023-12-27T06:53:33.080Z,98356.83
2023-12-27T06:56:02.561Z,98364.21
2023-12-27T06:58:31.028Z,98370.69
2023-12-27T07:00:59.565Z,98374.73
2023-12-27T07:03:28.291Z,98380.52
2023-12-27T07:05:56.802Z,98385.96
2023-12-27T07:08:25.200Z,98386.42
2023-12-27T07:10:53.491Z,98392.39
2023-12-27T07:13:21.803Z,98397.85
2023-12-27T07:15:50.136Z,98402.45
2023-12-27T07:18:18.670Z,98399.40
2023-12-27T07:20:47.216Z,98403.13
2023-12-27T07:23:15.529Z,98405.71
2023-12-27T07:25:43.879Z,98410.73
2023-12-27T07:28:12.237Z,98413.30
2023-12-27T07:30:40.672Z,98418.28
2023-12-27T07:33:09.365Z,98419.20
2023-12-27T07:35:37.761Z,98418.37
2023-12-27T07:38:06.071Z,98432.39
2023-12-27T07:40:34.308Z,98445.80
2023-12-27T07:43:03.564Z,98448.44
2023-12-27T07:45:32.167Z,98446.30
2023-12-27T07:48:00.856Z,98455.92
2023-12-27T07:50:29.523Z,98457.25
2023-12-27T07:52:57.934Z,98463.66
2023-12-27T07:55:26.268Z,98466.87
2023-12-27T07:57:54.893Z,98468.63
2023-12-27T08:00:23.378Z,98474.64
2023-12-27T08:02:51.772Z,98467.41
2023-12-27T08:05:20.191Z,98477.26
2023-12-27T08:07:48.619Z,98477.31
2023-12-27T08:10:17.115Z,98476.31
2023-12-27T08:12:46.701Z,98479.93
2023-12-27T08:15:15.108Z,98484.78
2023-12-27T08:17:43.512Z,98487.75
2023-12-27T08:20:12.150Z,98487.11
2023-12-27T08:22:40.484Z,98488.91
2023-12-27T08:25:13.701Z,98493.73
2023-12-27T08:27:42.153Z,98502.45
2023-12-27T08:30:11.086Z,98500.58
2023-12-27T08:32:39.586Z,98499.88
2023-12-27T08:35:08.445Z,98505.06
2023-12-27T08:37:36.797Z,98507.73
2023-12-27T08:40:06.049Z,98507.65
2023-12-27T08:42:34.431Z,98513.55
2023-12-27T08:45:02.914Z,98513.16
2023-12-27T08:47:31.337Z,98514.33
2023-12-27T08:50:04.485Z,98516.60
2023-12-27T08:52:34.413Z,98517.48
2023-12-27T08:55:04.759Z,98518.52
2023-12-27T08:57:36.276Z,98522.40
2023-12-27T09:00:11.981Z,98518.14
2023-12-27T09:02:43.352Z,98509.48
2023-12-27T09:05:11.731Z,98505.77
2023-12-27T09:07:40.300Z,98507.28
2023-12-27T09:10:09.011Z,98506.48
2023-12-27T09:12:40.247Z,98504.52
2023-12-27T09:15:09.709Z,98503.59
2023-12-27T09:17:38.214Z,98502.92
2023-12-27T09:20:09.297Z,98501.04
2023-12-27T09:22:37.852Z,98501.23
2023-12-27T09:25:07.144Z,98505.58
2023-12-27T09:27:35.668Z,98516.16
2023-12-27T09:30:05.529Z,98515.77
2023-12-27T09:32:33.967Z,98522.05
2023-12-27T09:35:04.094Z,98523.63
2023-12-27T09:37:32.691Z,98526.46
2023-12-27T09:40:00.999Z,98520.38
2023-12-27T09:42:30.840Z,98524.20
2023-12-27T09:45:01.987Z,98522.08
2023-12-27T09:47:31.724Z,98532.20
2023-12-27T09:50:01.081Z,98534.55
2023-12-27T09:52:31.349Z,98527.68
2023-12-27T09:54:59.941Z,98524.23
2023-12-27T09:57:28.381Z,98520.66
2023-12-27T09:59:57.615Z,98526.42
2023-12-27T10:02:30.272Z,98524.91
2023-12-27T10:05:20.484Z,98527.23
2023-12-27T10:07:49.201Z,98518.14
2023-12-27T10:10:25.183Z,98517.90
2023-12-27T10:12:57.872Z,98515.76
2023-12-27T10:15:26.342Z,98526.88
2023-12-27T10:17:54.820Z,98528.88
2023-12-27T10:20:39.634Z,98536.30
2023-12-27T10:23:08.319Z,98540.39
2023-12-27T10:25:37.397Z,98540.62
2023-12-27T10:28:06.113Z,98536.59
2023-12-27T10:30:34.836Z,98531.99
2023-12-27T10:33:04.760Z,98532.36
2023-12-27T10:35:33.690Z,98530.81
2023-12-27T10:38:04.407Z,98532.50
2023-12-27T10:40:35.876Z,98535.68
2023-12-27T10:43:04.624Z,98536.98
2023-12-27T10:45:34.129Z,98543.50
2023-12-27T10:48:07.691Z,98543.63
2023-12-27T10:50:36.400Z,98537.72
2023-12-27T10:53:09.044Z,98541.86
2023-12-27T10:55:39.497Z,98543.00
2023-12-27T10:58:16.206Z,98544.13
2023-12-27T11:00:45.955Z,98544.19
2023-12-27T11:03:16.030Z,98538.67
2023-12-27T11:05:45.140Z,98543.09
2023-12-27T11:08:15.310Z,98542.59
2023-12-27T11:10:46.039Z,98549.20
2023-12-27T11:13:17.041Z,98552.91
2023-12-27T11:15:47.388Z,98556.14
2023-12-27T11:18:17.615Z,98549.45
2023-12-27T11:20:48.725Z,98550.91
2023-12-27T11:23:17.137Z,98551.91
2023-12-27T11:25:45.461Z,98549.27
2023-12-27T11:28:14.791Z,98546.72
2023-12-27T11:30:44.691Z,98542.08
2023-12-27T11:33:31.433Z,98539.89
2023-12-27T11:36:01.844Z,98535.34
2023-12-27T11:38:30.427Z,98534.16
2023-12-27T11:41:02.783Z,98536.88
2023-12-27T11:43:55.007Z,98533.56
2023-12-27T11:46:28.392Z,98522.13
2023-12-27T11:49:00.288Z,98525.96
2023-12-27T11:51:37.795Z,98535.27
2023-12-27T11:54:10.503Z,98533.78
2023-12-27T11:56:41.115Z,98533.95
2023-12-27T11:59:10.683Z,98535.23
2023-12-27T12:01:41.848Z,98538.61
2023-12-27T12:04:46.041Z,98534.45
2023-12-27T12:07:55.974Z,98541.52
2023-12-27T12:10:28.407Z,98540.33
2023-12-27T12:12:59.523Z,98542.66
2023-12-27T12:15:32.700Z,98548.38
2023-12-27T12:18:01.898Z,98553.06
2023-12-27T12:20:32.025Z,98554.66
2023-12-27T12:23:01.122Z,98551.08
2023-12-27T12:25:29.420Z,98553.86
2023-12-27T12:27:58.054Z,98554.09
2023-12-27T12:30:26.863Z,98556.80
2023-12-27T12:32:55.878Z,98551.21
2023-12-27T12:35:25.417Z,98550.02
2023-12-27T12:37:53.842Z,98556.91
2023-12-27T12:40:23.181Z,98561.30
2023-12-27T12:42:52.118Z,98556.79
2023-12-27T12:45:20.594Z,98558.53
2023-12-27T12:47:50.714Z,98558.21
2023-12-27T12:50:19.943Z,98557.33
2023-12-27T12:52:48.266Z,98557.92
2023-12-27T12:55:18.611Z,98557.52
2023-12-27T12:57:47.148Z,98558.51
2023-12-27T13:00:23.066Z,98560.15
2023-12-27T13:02:54.316Z,98563.95
2023-12-27T13:05:22.909Z,98564.27
2023-12-27T13:07:51.304Z,98574.20
2023-12-27T13:10:20.415Z,98577.13
2023-12-27T13:12:48.754Z,98576.98
2023-12-27T13:15:21.183Z,98577.56
2023-12-27T13:17:50.237Z,98583.25
2023-12-27T13:20:18.526Z,98584.90
2023-12-27T13:22:46.692Z,98586.23
2023-12-27T13:25:17.824Z,98594.36
2023-12-27T13:27:55.331Z,98595.02
2023-12-27T13:30:30.534Z,98600.55
2023-12-27T13:33:03.595Z,98604.10
2023-12-27T13:35:32.905Z,98610.36
2023-12-27T13:38:01.294Z,98608.07
2023-12-27T13:40:31.181Z,98611.61
2023-12-27T13:42:59.484Z,98614.65
2023-12-27T13:45:28.178Z,98615.23
2023-12-27T13:47:56.824Z,98613.34
2023-12-27T13:50:25.270Z,98619.81
2023-12-27T13:52:53.466Z,98627.23
2023-12-27T13:55:24.817Z,98628.55
2023-12-27T13:57:53.257Z,98627.73
2023-12-27T14:00:21.845Z,98628.40
2023-12-27T14:02:52.982Z,98627.50
2023-12-27T14:05:21.461Z,98631.96
2023-12-27T14:07:50.108Z,98639.57
2023-12-27T14:10:20.269Z,98641.34
2023-12-27T14:12:48.628Z,98646.27
2023-12-27T14:15:18.118Z,98647.80
2023-12-27T14:17:47.149Z,98648.95
2023-12-27T14:20:15.789Z,98654.11
2023-12-27T14:22:44.205Z,98653.14
2023-12-27T14:25:14.968Z,98653.08
2023-12-27T14:27:46.193Z,98654.86
2023-12-27T14:30:15.287Z,98655.56
2023-12-27T14:32:43.881Z,98654.35
2023-12-27T14:35:12.417Z,98655.21
2023-12-27T14:37:41.722Z,98658.71
2023-12-27T14:40:12.022Z,98655.60
2023-12-27T14:42:40.476Z,98660.04
2023-12-27T14:45:13.550Z,98664.49
2023-12-27T14:47:41.787Z,98663.49
2023-12-27T14:50:11.082Z,98662.34
2023-12-27T14:52:40.153Z,98664.38
2023-12-27T14:55:10.196Z,98664.26
2023-12-27T14:57:38.622Z,98669.44
2023-12-27T15:00:07.873Z,98671.05
2023-12-27T15:02:38.600Z,98677.41
2023-12-27T15:05:10.221Z,98677.77
2023-12-27T15:07:38.600Z,98677.73
2023-12-27T15:10:09.148Z,98681.60
2023-12-27T15:12:37.453Z,98684.80
2023-12-27T15:15:06.645Z,98687.46
2023-12-27T15:17:34.987Z,98693.39
2023-12-27T15:20:03.674Z,98696.14
2023-12-27T15:22:31.943Z,98704.98
2023-12-27T15:25:00.498Z,98700.29
2023-12-27T15:27:28.863Z,98697.95
2023-12-27T15:29:58.982Z,98697.74
2023-12-27T15:32:27.465Z,98704.77
2023-12-27T15:34:57.395Z,98710.70
2023-12-27T15:37:25.617Z,98717.09
2023-12-27T15:39:53.998Z,98718.88
2023-12-27T15:42:22.267Z,98720.41
2023-12-27T15:44:50.482Z,98721.55
2023-12-27T15:47:20.340Z,98721.40
2023-12-27T15:49:48.642Z,98722.26
2023-12-27T15:52:16.886Z,98725.61
2023-12-27T15:54:45.213Z,98725.14
2023-12-27T15:57:13.537Z,98727.27
2023-12-27T15:59:41.784Z,98731.27
2023-12-27T16:02:10.051Z,98730.92
2023-12-27T16:04:38.591Z,98733.13
2023-12-27T16:07:06.988Z,98739.43
2023-12-27T16:09:35.240Z,98747.06
2023-12-27T16:12:04.856Z,98751.16
2023-12-27T16:14:36.295Z,98751.83
2023-12-27T16:17:05.636Z,98754.58
2023-12-27T16:19:37.014Z,98755.66
2023-12-27T16:22:05.531Z,98759.39
2023-12-27T16:24:33.937Z,98762.46
2023-12-27T16:27:04.315Z,98763.52
2023-12-27T16:29:32.775Z,98764.81
2023-12-27T16:32:01.128Z,98765.22
2023-12-27T16:34:29.472Z,98767.09
2023-12-27T16:36:57.678Z,98769.25
2023-12-27T16:39:25.892Z,98774.81
2023-12-27T16:41:54.153Z,98775.13
2023-12-27T16:44:25.010Z,98778.42
2023-12-27T16:46:53.272Z,98780.55
2023-12-27T16:49:21.539Z,98782.61
2023-12-27T16:51:49.910Z,98782.82
2023-12-27T16:54:18.402Z,98783.34
2023-12-27T16:56:48.958Z,98787.27
2023-12-27T16:59:17.198Z,98791.10
2023-12-27T17:01:45.553Z,98793.84
2023-12-27T17:04:14.038Z,98799.13
2023-12-27T17:06:42.522Z,98800.73
2023-12-27T17:09:10.901Z,98806.59
2023-12-27T17:11:39.453Z,98810.85
2023-12-27T17:14:07.709Z,98814.00
2023-12-27T17:16:35.882Z,98815.08
2023-12-27T17:19:04.485Z,98818.59
2023-12-27T17:21:32.991Z,98819.30
2023-12-27T17:24:01.841Z,98813.95
2023-12-27T17:26:30.086Z,98812.61
2023-12-27T17:28:58.289Z,98811.49
2023-12-27T17:31:26.618Z,98813.83
2023-12-27T17:33:54.916Z,98819.40
2023-12-27T17:36:23.275Z,98823.00
2023-12-27T17:38:51.498Z,98832.50
2023-12-27T17:41:19.815Z,98835.98
2023-12-27T17:43:48.775Z,98836.17
2023-12-27T17:46:17.730Z,98838.03
2023-12-27T17:48:47.140Z,98839.22
2023-12-27T17:51:15.710Z,98841.29
2023-12-27T17:53:43.972Z,98846.21
2023-12-27T17:56:12.198Z,98848.95
2023-12-27T17:58:40.387Z,98849.90
2023-12-27T18:01:09.242Z,98846.66
2023-12-27T18:03:37.544Z,98843.95
2023-12-27T18:06:07.886Z,98843.94
2023-12-27T18:08:36.162Z,98841.48
2023-12-27T18:11:04.979Z,98848.55
2023-12-27T18:13:34.933Z,98851.21
2023-12-27T18:16:04.329Z,98854.17
2023-12-27T18:18:32.959Z,98852.75
2023-12-27T18:21:02.062Z,98853.86
2023-12-27T18:23:30.271Z,98862.51
2023-12-27T18:25:58.672Z,98865.30
2023-12-27T18:28:27.172Z,98866.77
2023-12-27T18:30:57.924Z,98867.42
2023-12-27T18:33:26.368Z,98862.74
2023-12-27T18:35:58.602Z,98862.25
2023-12-27T18:38:26.970Z,98871.02
2023-12-27T18:40:55.156Z,98872.67
2023-12-27T18:43:24.945Z,98868.81
2023-12-27T18:45:53.187Z,98863.10
2023-12-27T18:48:21.824Z,98865.35
2023-12-27T18:50:50.835Z,98864.41
2023-12-27T18:53:19.891Z,98862.31
2023-12-27T18:55:48.175Z,98862.20
2023-12-27T18:58:16.407Z,98867.30
2023-12-27T19:00:47.706Z,98871.19
2023-12-27T19:03:17.144Z,98867.09
2023-12-27T19:05:45.703Z,98872.74
2023-12-27T19:08:14.409Z,98872.48
2023-12-27T19:10:42.644Z,98868.87
2023-12-27T19:13:10.973Z,98876.36
2023-12-27T19:15:39.266Z,98877.98
2023-12-27T19:18:07.713Z,98876.75
2023-12-27T19:20:36.763Z,98874.06
2023-12-27T19:23:04.971Z,98875.12
2023-12-27T19:25:33.213Z,98879.56
2023-12-27T19:28:03.456Z,98885.20
2023-12-27T19:30:31.676Z,98891.05
2023-12-27T19:33:00.164Z,98890.95
2023-12-27T19:35:28.646Z,98896.13
2023-12-27T19:37:58.268Z,98896.83
2023-12-27T19:40:26.464Z,98902.48
2023-12-27T19:42:54.956Z,98905.70
2023-12-27T19:45:23.454Z,98911.13
2023-12-27T19:47:51.690Z,98914.05
2023-12-27T19:50:20.061Z,98911.87
2023-12-27T19:52:48.254Z,98909.77
2023-12-27T19:55:16.522Z,98914.29
2023-12-27T19:57:44.780Z,98916.73
2023-12-27T20:00:14.493Z,98921.91
2023-12-27T20:02:43.096Z,98923.21
2023-12-27T20:05:11.513Z,98923.92
2023-12-27T20:07:39.858Z,98923.45
2023-12-27T20:10:08.851Z,98923.13
2023-12-27T20:12:37.140Z,98923.59
2023-12-27T20:15:09.284Z,98923.71
2023-12-27T20:17:38.589Z,98928.24
2023-12-27T20:20:07.735Z,98931.63
2023-12-27T20:22:35.983Z,98931.39
2023-12-27T20:25:04.602Z,98929.46
2023-12-27T20:27:32.813Z,98927.80
2023-12-27T20:30:01.182Z,98927.19
2023-12-27T20:32:30.768Z,98927.20
2023-12-27T20:35:00.772Z,98922.55
2023-12-27T20:37:31.538Z,98927.29
2023-12-27T20:40:00.530Z,98930.70
2023-12-27T20:42:28.817Z,98932.16
2023-12-27T20:44:57.311Z,98932.05
2023-12-27T20:47:25.552Z,98933.24
2023-12-27T20:49:54.394Z,98934.29
2023-12-27T20:52:22.774Z,98938.76
2023-12-27T20:54:51.029Z,98941.27
2023-12-27T20:57:19.377Z,98941.64
2023-12-27T20:59:48.355Z,98940.14
2023-12-27T21:02:16.605Z,98939.88
2023-12-27T21:04:47.970Z,98938.77
2023-12-27T21:07:18.352Z,98936.16
2023-12-27T21:09:46.689Z,98942.42
2023-12-27T21:12:15.064Z,98953.70
2023-12-27T21:14:43.275Z,98958.34
2023-12-27T21:17:11.572Z,98960.14
2023-12-27T21:19:40.813Z,98957.29
2023-12-27T21:22:09.453Z,98956.47
2023-12-27T21:24:37.720Z,98963.86
2023-12-27T21:27:05.932Z,98966.91
2023-12-27T21:29:34.220Z,98959.11
2023-12-27T21:32:02.475Z,98954.63
2023-12-27T21:34:30.725Z,98947.12
2023-12-27T21:36:59.042Z,98955.97
2023-12-27T21:39:27.443Z,98954.23
2023-12-27T21:41:58.249Z,98944.92
2023-12-27T21:44:27.022Z,98942.02
2023-12-27T21:46:55.247Z,98942.08
2023-12-27T21:49:23.497Z,98941.60
2023-12-27T21:51:51.768Z,98948.13
2023-12-27T21:54:20.917Z,98950.66
2023-12-27T21:56:49.175Z,98951.77
2023-12-27T21:59:17.448Z,98954.91
2023-12-27T22:01:45.696Z,98960.54
2023-12-27T22:04:15.069Z,98953.29
2023-12-27T22:06:46.014Z,98952.34
2023-12-27T22:09:14.740Z,98950.86
2023-12-27T22:11:43.033Z,98955.84
2023-12-27T22:14:11.286Z,98954.85
2023-12-27T22:16:39.827Z,98951.11
2023-12-27T22:19:08.198Z,98956.27
2023-12-27T22:21:36.701Z,98960.37
2023-12-27T22:24:05.545Z,98956.63
2023-12-27T22:26:33.787Z,98955.95
2023-12-27T22:29:02.073Z,98948.34
2023-12-27T22:31:30.449Z,98949.64
2023-12-27T22:33:58.861Z,98949.33
2023-12-27T22:36:27.281Z,98950.05
2023-12-27T22:38:56.002Z,98943.30
2023-12-27T22:41:24.586Z,98935.27
2023-12-27T22:43:53.169Z,98936.30
2023-12-27T22:46:21.509Z,98930.01
2023-12-27T22:48:49.897Z,98926.91
2023-12-27T22:51:18.515Z,98931.13
2023-12-27T22:53:46.806Z,98926.59
2023-12-27T22:56:15.044Z,98921.25
2023-12-27T22:58:43.552Z,98924.17
2023-12-27T23:01:11.876Z,98918.98
2023-12-27T23:03:40.220Z,98915.37
2023-12-27T23:06:12.829Z,98908.91
2023-12-27T23:08:41.178Z,98909.45
2023-12-27T23:11:09.416Z,98912.10
2023-12-27T23:13:37.703Z,98912.61
2023-12-27T23:16:06.488Z,98913.58
2023-12-27T23:18:34.815Z,98911.04
2023-12-27T23:21:03.400Z,98910.52
2023-12-27T23:23:31.644Z,98906.56
2023-12-27T23:26:00.430Z,98900.54
2023-12-27T23:28:30.066Z,98901.25
2023-12-27T23:30:58.633Z,98893.61
2023-12-27T23:33:27.214Z,98894.35
2023-12-27T23:35:55.633Z,98902.02
2023-12-27T23:38:23.875Z,98903.66
2023-12-27T23:40:52.253Z,98905.64
2023-12-27T23:43:20.688Z,98910.38
2023-12-27T23:45:49.022Z,98917.67
2023-12-27T23:48:18.383Z,98925.16
2023-12-27T23:50:46.722Z,98931.66
2023-12-27T23:53:14.975Z,98937.48
2023-12-27T23:55:43.171Z,98940.35
2023-12-27T23:58:13.974Z,98939.45
